Hlavní strana
METAR-TAF:

METAR-TAF

Letiště :

Zeltweg, Rakousko

zeměpisná šířka: 47-12N, zeměpisná délka: 014-45E, výška: 677 m

Aktuální stav počasí

Zpráva byla vytvořena před 27 minutami, v 14:50 UTC
vítr z různých směrů 3 kt
Teplota -2°C
Vlhkost vzduchu 93%
Tlak 1025 hPa

METAR: LOXZ 181450Z VRB03KT 15KM FEW050SC BKN300CI M02/M03 Q1025 NOSIG

Čas: 16:17 (15:17 UTC)

Předpověď počasí

Zpráva byla vytvořena před 1 hodinou a 2 minutami, v 14:15 UTC
Předpověď platná od 18 v 15 UTC do 18 v 24 UTC
vítr z různých směrů 3 kt
Viditelnost 10 km a více
Skoro jasno ve výšce 5000 ft
Polojasno ve výšce 30000 ft
Pravděpodobnost 30% :
Dočasný
od 18 v 20 UTC do 18 v 22 UTC
Viditelnost: 1400 m
Skoro jasno ve výšce 300 ft

TAF: LOXZ 181415Z 1815/1824 VRB03KT 9999 FEW050 SCT300 PROB30 TEMPO 1820/1822 1400 FZBCFG FEW003

Stav a předpovědi počasí z více než 4 000 letišť (zprávy METAR a TAF).

Červené a žluté tečky na mapě představují dostupné meteorologické stanice.

Když kurzor umístíte na tečku, zobrazí se název stanice.

Pak kliknutím zobrazíte stav a předpověď počasí.

Chcete-li změnit mapu, kliknutím na zelené tlačítko se znaménkem +mapu přiblížíte, kliknutím na zelené tlačítko se znaménkem – mapu oddálíte a kliknutím na zelené šipky přejdete na sousední mapy.


METAR-TAF: